Time;durP1;ratioP1;P1;durP2;ratioP2;P2;SDS_P1;SDS_P2;PMS_P1;PMS_P2;Temp;Humidity;BMP_temperature;BMP_pressure;BME280_temperature;BME280_humidity;BME280_pressure;Samples;Min_cycle;Max_cycle;Signal;HPM_P1;HPM_P2
2022/03/07 00:01:14;;;;;;;;;;;;;;;13.36;40.23;102206.16;4415276;32;20000;-71
2022/03/07 00:03:39;;;;;;;;;;;;;;;13.21;40.33;102198.25;4416888;32;20311;-71
2022/03/07 00:06:05;;;;;;;;;;;;;;;13.12;40.49;102204.41;4418912;32;20382;-71
2022/03/07 00:08:31;;;;;;;;;;;;;;;13.16;39.93;102190.25;4415697;32;20314;-71
2022/03/07 00:10:56;;;;;;;;;;;;;;;12.85;40.51;102197.81;4416213;32;20528;-71
2022/03/07 00:13:22;;;;;;;;;;;;;;;12.78;41.02;102195.06;4415588;32;19972;-71
2022/03/07 00:15:49;;;;;;;;;;;;;;;12.76;40.76;102191.06;4413600;32;20012;-71
2022/03/07 00:18:14;;;;;;;;;;;;;;;12.57;41.23;102195.25;4413958;32;20056;-71
2022/03/07 00:20:40;;;;;;;;;;;;;;;12.66;41.16;102183.47;4414928;32;19961;-71
2022/03/07 00:23:05;;;;;;;;;;;;;;;12.81;41.05;102182.09;4418580;32;20012;-71
2022/03/07 00:25:31;;;;;;;;;;;;;;;12.91;40.96;102182.00;4413027;32;20347;-71
2022/03/07 00:27:56;;;;;;;;;;;;;;;12.92;41.15;102177.94;4414743;32;20222;-71
2022/03/07 00:30:22;;;;;;;;;;;;;;;12.98;40.73;102169.84;4414528;32;20036;-71
2022/03/07 00:32:48;;;;;;;;;;;;;;;12.86;40.81;102173.97;4415140;32;20022;-71
2022/03/07 00:35:14;;;;;;;;;;;;;;;12.76;41.06;102172.06;4414719;32;20616;-71
2022/03/07 00:37:40;;;;;;;;;;;;;;;12.67;40.97;102171.75;4416711;32;19957;-71
2022/03/07 00:40:08;;;;;;;;;;;;;;;12.38;41.39;102170.41;4416739;32;20015;-71
2022/03/07 00:42:34;;;;;;;;;;;;;;;12.40;41.37;102165.16;4415408;32;20304;-71
2022/03/07 00:44:59;;;;;;;;;;;;;;;12.48;41.15;102157.41;4416427;32;20070;-71
2022/03/07 00:47:25;;;;;;;;;;;;;;;12.36;41.51;102166.41;4416286;32;20370;-71
2022/03/07 00:49:51;;;;;;;;;;;;;;;12.34;41.58;102166.84;4414812;32;19993;-71
2022/03/07 00:52:16;;;;;;;;;;;;;;;12.39;41.68;102168.41;4418029;32;20445;-71
2022/03/07 00:54:42;;;;;;;;;;;;;;;12.50;41.82;102160.62;4414887;32;19980;-71
2022/03/07 00:57:07;;;;;;;;;;;;;;;12.51;41.99;102165.03;4415457;32;19993;-71
2022/03/07 00:59:33;;;;;;;;;;;;;;;12.41;41.58;102165.94;4415522;32;19949;-71
2022/03/07 01:01:58;;;;;;;;;;;;;;;12.59;41.64;102164.59;4416402;32;19971;-71
2022/03/07 01:04:24;;;;;;;;;;;;;;;12.71;41.48;102161.25;4416205;32;20272;-71
2022/03/07 01:06:49;;;;;;;;;;;;;;;12.88;41.32;102154.59;4414335;32;20002;-71
2022/03/07 01:09:15;;;;;;;;;;;;;;;12.94;41.00;102155.72;4415797;32;19968;-71
2022/03/07 01:11:41;;;;;;;;;;;;;;;13.11;40.46;102157.59;4412619;32;19985;-71
2022/03/07 01:14:07;;;;;;;;;;;;;;;13.25;40.27;102162.25;4413677;32;20011;-71
2022/03/07 01:16:32;;;;;;;;;;;;;;;13.36;40.14;102160.09;4414920;32;20350;-71
2022/03/07 01:19:01;;;;;;;;;;;;;;;13.46;39.59;102161.97;4414597;32;20014;-71
2022/03/07 01:21:27;;;;;;;;;;;;;;;13.53;39.70;102159.09;4415118;32;19996;-71
2022/03/07 01:23:52;;;;;;;;;;;;;;;13.49;39.85;102156.28;4413895;32;20374;-71
2022/03/07 01:26:17;;;;;;;;;;;;;;;13.45;39.99;102154.72;4415320;32;19957;-71
2022/03/07 01:28:43;;;;;;;;;;;;;;;13.61;39.79;102150.06;4413587;32;19971;-71
2022/03/07 01:31:08;;;;;;;;;;;;;;;13.59;39.72;102152.50;4415076;32;19950;-71
2022/03/07 01:33:34;;;;;;;;;;;;;;;13.60;39.64;102151.28;4415474;32;20008;-71
2022/03/07 01:35:59;;;;;;;;;;;;;;;13.74;39.85;102155.94;4418670;32;20005;-71
2022/03/07 01:38:25;;;;;;;;;;;;;;;13.80;39.59;102148.56;4417587;32;19985;-71
2022/03/07 01:40:51;;;;;;;;;;;;;;;13.67;39.28;102145.53;4414970;32;20354;-71
2022/03/07 01:43:17;;;;;;;;;;;;;;;13.82;39.59;102141.28;4414996;32;20052;-71
2022/03/07 01:45:42;;;;;;;;;;;;;;;13.73;39.42;102138.16;4414155;32;20308;-71
2022/03/07 01:48:08;;;;;;;;;;;;;;;13.62;39.35;102134.69;4414221;32;20004;-71
2022/03/07 01:50:34;;;;;;;;;;;;;;;13.70;39.36;102126.91;4413018;32;20579;-71
2022/03/07 01:53:00;;;;;;;;;;;;;;;13.66;39.36;102117.66;4416777;32;19967;-71
2022/03/07 01:55:25;;;;;;;;;;;;;;;13.76;39.64;102120.34;4414702;32;19970;-71
2022/03/07 01:57:51;;;;;;;;;;;;;;;13.80;39.56;102115.41;4399256;32;19993;-71
2022/03/07 02:00:19;;;;;;;;;;;;;;;13.80;39.23;102120.25;4416149;32;20021;-71
2022/03/07 02:02:45;;;;;;;;;;;;;;;14.02;39.07;102111.03;4413940;32;20852;-71
2022/03/07 02:05:11;;;;;;;;;;;;;;;14.04;38.85;102107.75;4416730;32;19997;-71
2022/03/07 02:07:36;;;;;;;;;;;;;;;13.75;39.32;102106.62;4414175;32;20350;-71
2022/03/07 02:10:03;;;;;;;;;;;;;;;13.86;38.76;102105.22;4412805;32;20200;-71
2022/03/07 02:12:29;;;;;;;;;;;;;;;14.02;38.62;102108.19;4414397;32;19957;-71
2022/03/07 02:14:54;;;;;;;;;;;;;;;14.01;38.79;102100.13;4415069;32;20025;-71
2022/03/07 02:17:20;;;;;;;;;;;;;;;14.16;38.87;102095.81;4414242;32;20381;-71
2022/03/07 02:19:45;;;;;;;;;;;;;;;14.01;38.78;102098.09;4411852;32;19989;-71
2022/03/07 02:22:11;;;;;;;;;;;;;;;14.02;39.26;102096.88;4416499;32;19958;-71
2022/03/07 02:24:37;;;;;;;;;;;;;;;14.27;38.73;102090.00;4417443;32;20085;-71
2022/03/07 02:27:05;;;;;;;;;;;;;;;14.35;38.52;102088.63;4415025;32;20370;-71
2022/03/07 02:29:31;;;;;;;;;;;;;;;14.16;38.70;102080.84;4414221;32;19961;-71
2022/03/07 02:31:57;;;;;;;;;;;;;;;14.03;39.09;102072.97;4414833;32;20044;-71
2022/03/07 02:34:23;;;;;;;;;;;;;;;14.02;38.80;102077.06;4411446;32;19994;-71
2022/03/07 02:36:48;;;;;;;;;;;;;;;13.93;39.16;102079.62;4413463;32;20010;-71
2022/03/07 02:39:14;;;;;;;;;;;;;;;13.73;40.01;102069.47;4413041;32;20328;-71
2022/03/07 02:41:40;;;;;;;;;;;;;;;13.78;39.86;102078.25;4411192;32;19969;-71
2022/03/07 02:44:06;;;;;;;;;;;;;;;13.83;39.96;102066.47;4415900;32;20361;-71
2022/03/07 02:46:31;;;;;;;;;;;;;;;13.80;39.77;102058.00;4412293;32;20031;-71
2022/03/07 02:48:57;;;;;;;;;;;;;;;13.93;39.55;102056.97;4412699;32;20437;-71
2022/03/07 02:51:22;;;;;;;;;;;;;;;13.83;39.49;102063.63;4412906;32;20087;-71
2022/03/07 02:53:49;;;;;;;;;;;;;;;13.78;39.73;102064.09;4415894;32;19989;-71
2022/03/07 02:56:14;;;;;;;;;;;;;;;13.74;39.90;102054.88;4414414;32;19969;-71
2022/03/07 02:58:41;;;;;;;;;;;;;;;13.59;40.27;102064.00;4413664;32;19965;-71
2022/03/07 03:01:08;;;;;;;;;;;;;;;13.64;40.11;102055.84;4413411;32;19998;-71
2022/03/07 03:03:33;;;;;;;;;;;;;;;13.51;40.22;102054.84;4414954;32;20000;-72
2022/03/07 03:05:59;;;;;;;;;;;;;;;13.55;40.62;102046.28;4415011;32;19968;-72
2022/03/07 03:08:24;;;;;;;;;;;;;;;13.55;40.44;102047.09;4411064;32;20017;-72
2022/03/07 03:10:52;;;;;;;;;;;;;;;13.58;40.69;102046.25;4415316;32;20008;-72
2022/03/07 03:13:19;;;;;;;;;;;;;;;13.49;40.59;102040.31;4415337;32;20013;-72
2022/03/07 03:15:45;;;;;;;;;;;;;;;13.38;40.67;102042.50;4416286;32;19975;-72
2022/03/07 03:18:11;;;;;;;;;;;;;;;13.19;40.86;102028.28;4414763;32;20001;-72
2022/03/07 03:20:36;;;;;;;;;;;;;;;13.04;41.06;102033.31;4410862;32;20025;-72
2022/03/07 03:23:02;;;;;;;;;;;;;;;12.85;41.51;102028.28;4413302;32;20012;-72
2022/03/07 03:25:27;;;;;;;;;;;;;;;12.73;41.70;102028.06;4411701;32;19962;-72
2022/03/07 03:27:53;;;;;;;;;;;;;;;12.56;42.21;102021.41;4415196;32;19953;-72
2022/03/07 03:30:18;;;;;;;;;;;;;;;12.41;42.09;102027.59;4415406;32;19972;-72
2022/03/07 03:32:44;;;;;;;;;;;;;;;12.13;42.53;102031.53;4414495;32;20030;-72
2022/03/07 03:35:10;;;;;;;;;;;;;;;12.21;42.45;102030.22;4417256;32;19965;-72
2022/03/07 03:37:36;;;;;;;;;;;;;;;12.03;42.76;102016.31;4419107;32;19960;-72
2022/03/07 03:40:02;;;;;;;;;;;;;;;11.96;42.80;102021.22;4417385;32;20273;-72
2022/03/07 03:42:28;;;;;;;;;;;;;;;12.10;42.50;102023.91;4418965;32;19954;-72
2022/03/07 03:44:54;;;;;;;;;;;;;;;11.80;43.01;102007.66;4418088;32;20012;-72
2022/03/07 03:47:19;;;;;;;;;;;;;;;11.89;42.86;102010.00;4416677;32;20012;-72
2022/03/07 03:49:45;;;;;;;;;;;;;;;11.76;43.33;102015.34;4416718;32;20269;-72
2022/03/07 03:52:11;;;;;;;;;;;;;;;11.74;43.22;102014.97;4402777;32;19976;-72
2022/03/07 03:54:36;;;;;;;;;;;;;;;11.54;43.85;102013.88;4415374;32;20018;-72
2022/03/07 03:57:02;;;;;;;;;;;;;;;11.54;43.88;102013.88;4416862;32;20045;-72
2022/03/07 03:59:27;;;;;;;;;;;;;;;11.51;43.98;102014.72;4417343;32;20007;-72
2022/03/07 04:01:53;;;;;;;;;;;;;;;11.53;44.14;102012.28;4415149;32;19969;-72
2022/03/07 04:04:18;;;;;;;;;;;;;;;11.49;43.96;102010.72;4414229;32;19968;-71
2022/03/07 04:06:44;;;;;;;;;;;;;;;11.69;44.19;102021.06;4416193;32;19949;-71
2022/03/07 04:09:17;;;;;;;;;;;;;;;11.68;44.08;102018.66;4414661;32;19997;-72
2022/03/07 04:11:43;;;;;;;;;;;;;;;11.74;44.09;102014.97;4418889;32;20608;-72
2022/03/07 04:14:08;;;;;;;;;;;;;;;11.93;43.53;102013.59;4415668;32;19961;-72
2022/03/07 04:16:35;;;;;;;;;;;;;;;12.05;43.43;102010.25;4415332;32;19949;-72
2022/03/07 04:19:02;;;;;;;;;;;;;;;12.19;42.90;102012.13;4415873;32;20424;-72
2022/03/07 04:21:28;;;;;;;;;;;;;;;12.24;43.12;102003.22;4414482;32;19999;-72
2022/03/07 04:23:53;;;;;;;;;;;;;;;12.20;42.75;102003.25;4413224;32;19961;-72
2022/03/07 04:26:19;;;;;;;;;;;;;;;12.36;42.53;102003.47;4416175;32;19957;-72
2022/03/07 04:28:45;;;;;;;;;;;;;;;12.41;42.74;102007.84;4414759;32;19997;-72
2022/03/07 04:31:11;;;;;;;;;;;;;;;12.36;42.34;101999.84;4418320;32;20314;-72
2022/03/07 04:33:37;;;;;;;;;;;;;;;12.40;42.21;101998.59;4417088;32;20000;-72
2022/03/07 04:36:03;;;;;;;;;;;;;;;12.46;41.93;102001.75;4417363;32;20069;-72
2022/03/07 04:38:29;;;;;;;;;;;;;;;12.44;42.03;101995.72;4416162;32;20012;-72
2022/03/07 04:40:54;;;;;;;;;;;;;;;12.48;41.84;102000.09;4416577;32;20012;-72
2022/03/07 04:43:21;;;;;;;;;;;;;;;12.38;42.23;102005.88;4415409;32;20057;-72
2022/03/07 04:45:47;;;;;;;;;;;;;;;12.24;42.35;101997.56;4414822;32;19997;-72
2022/03/07 04:48:14;;;;;;;;;;;;;;;12.39;41.97;101994.16;4415146;32;19942;-72
2022/03/07 04:50:40;;;;;;;;;;;;;;;12.35;42.45;101999.03;4417675;32;20320;-72
2022/03/07 04:53:06;;;;;;;;;;;;;;;12.33;42.54;101995.84;4415209;32;20522;-72
2022/03/07 04:55:31;;;;;;;;;;;;;;;12.44;41.87;102001.38;4414664;32;19989;-72
2022/03/07 04:57:57;;;;;;;;;;;;;;;12.53;41.83;101996.81;4414433;32;19992;-72
2022/03/07 05:00:22;;;;;;;;;;;;;;;12.60;41.32;101993.91;4416080;32;19976;-72
2022/03/07 05:02:48;;;;;;;;;;;;;;;12.57;41.85;101988.28;4416128;32;19997;-72
2022/03/07 05:05:14;;;;;;;;;;;;;;;12.48;42.10;101999.28;4416055;32;19979;-72
2022/03/07 05:07:39;;;;;;;;;;;;;;;12.58;41.87;101999.16;4413902;32;19997;-72
2022/03/07 05:10:06;;;;;;;;;;;;;;;12.38;42.32;101988.94;4416018;32;19969;-72
2022/03/07 05:12:31;;;;;;;;;;;;;;;12.47;42.48;101992.84;4417852;32;20393;-72
2022/03/07 05:14:57;;;;;;;;;;;;;;;12.57;42.10;101985.47;4416959;32;20341;-72
2022/03/07 05:17:23;;;;;;;;;;;;;;;12.50;41.86;101980.72;4413699;32;20069;-72
2022/03/07 05:19:49;;;;;;;;;;;;;;;12.65;41.77;101979.31;4416100;32;19954;-72
2022/03/07 05:22:17;;;;;;;;;;;;;;;12.68;41.99;101986.16;4418082;32;19962;-72
2022/03/07 05:24:43;;;;;;;;;;;;;;;12.78;41.69;101976.72;4414208;32;20335;-72
2022/03/07 05:27:08;;;;;;;;;;;;;;;12.89;41.14;101977.38;4414790;32;20391;-72
2022/03/07 05:29:34;;;;;;;;;;;;;;;12.87;41.30;101980.62;4400877;32;19961;-72
2022/03/07 05:32:00;;;;;;;;;;;;;;;12.94;41.31;101972.06;4416062;32;19958;-72
2022/03/07 05:34:25;;;;;;;;;;;;;;;13.03;40.76;101968.72;4414884;32;19964;-72
2022/03/07 05:36:51;;;;;;;;;;;;;;;13.03;40.79;101977.22;4414478;32;19997;-72
2022/03/07 05:39:16;;;;;;;;;;;;;;;13.01;41.13;101979.69;4414072;32;20029;-72
2022/03/07 05:41:42;;;;;;;;;;;;;;;13.06;41.31;101985.66;4414855;32;19997;-72
2022/03/07 05:44:08;;;;;;;;;;;;;;;13.04;41.43;101971.12;4414083;32;20001;-72
2022/03/07 05:46:33;;;;;;;;;;;;;;;13.24;40.94;101968.41;4415188;32;20002;-72
2022/03/07 05:48:59;;;;;;;;;;;;;;;13.27;40.55;101973.22;4412128;32;19949;-72
2022/03/07 05:51:25;;;;;;;;;;;;;;;13.24;40.90;101969.22;4418480;32;19989;-72
2022/03/07 05:53:51;;;;;;;;;;;;;;;13.43;40.65;101979.81;4416110;32;19976;-72
2022/03/07 05:56:18;;;;;;;;;;;;;;;13.29;40.78;101982.84;4414826;32;20389;-72
2022/03/07 05:58:44;;;;;;;;;;;;;;;13.27;41.04;101978.87;4412997;32;20039;-72
2022/03/07 06:01:09;;;;;;;;;;;;;;;13.25;40.63;101978.47;4414918;32;19991;-72
2022/03/07 06:03:35;;;;;;;;;;;;;;;13.38;40.24;101979.50;4414382;32;19993;-72
2022/03/07 06:06:01;;;;;;;;;;;;;;;13.42;40.59;101978.22;4416002;32;19961;-72
2022/03/07 06:08:26;;;;;;;;;;;;;;;13.44;40.73;101972.16;4415974;32;20005;-72
2022/03/07 06:10:52;;;;;;;;;;;;;;;13.43;40.72;101970.53;4412634;32;20009;-72
2022/03/07 06:13:19;;;;;;;;;;;;;;;13.46;40.51;101973.31;4414519;32;19961;-72
2022/03/07 06:15:45;;;;;;;;;;;;;;;13.45;40.24;101973.75;4416001;32;19997;-72
2022/03/07 06:18:11;;;;;;;;;;;;;;;13.49;40.34;101977.28;4414641;32;19989;-72
2022/03/07 06:20:37;;;;;;;;;;;;;;;13.68;39.82;101976.56;4412278;32;20478;-72
2022/03/07 06:23:04;;;;;;;;;;;;;;;13.69;39.95;101984.62;4413545;32;20010;-72
2022/03/07 06:25:33;;;;;;;;;;;;;;;13.64;39.64;101973.00;4415975;32;19984;-72
2022/03/07 06:27:59;;;;;;;;;;;;;;;13.57;40.32;101973.13;4414318;32;21459;-72
2022/03/07 06:30:24;;;;;;;;;;;;;;;13.56;40.11;101980.81;4413346;32;20031;-72
2022/03/07 06:32:50;;;;;;;;;;;;;;;13.57;39.78;101970.31;4413463;32;20322;-72
2022/03/07 06:35:16;;;;;;;;;;;;;;;13.76;39.98;101976.03;4417469;32;20327;-72
2022/03/07 06:37:47;;;;;;;;;;;;;;;13.86;39.69;101972.22;4415478;32;20011;-72
2022/03/07 06:40:12;;;;;;;;;;;;;;;13.76;39.42;101956.22;4413332;32;20325;-72
2022/03/07 06:42:38;;;;;;;;;;;;;;;13.72;39.92;101966.78;4415271;32;20315;-72
2022/03/07 06:45:04;;;;;;;;;;;;;;;13.74;39.84;101964.34;4412816;32;19953;-72
2022/03/07 06:47:30;;;;;;;;;;;;;;;13.84;39.62;101960.50;4415676;32;19974;-72
2022/03/07 06:49:57;;;;;;;;;;;;;;;13.83;39.50;101956.09;4413038;32;20002;-72
2022/03/07 06:52:24;;;;;;;;;;;;;;;13.82;39.65;101965.03;4414931;32;20349;-72
2022/03/07 06:54:51;;;;;;;;;;;;;;;13.93;39.38;101960.75;4414226;32;20012;-72
2022/03/07 06:57:17;;;;;;;;;;;;;;;13.91;39.16;101962.44;4417425;32;20007;-72
2022/03/07 06:59:43;;;;;;;;;;;;;;;13.87;39.11;101959.66;4412684;32;19965;-72
2022/03/07 07:02:08;;;;;;;;;;;;;;;14.06;39.43;101956.06;4416108;32;20521;-72
2022/03/07 07:04:35;;;;;;;;;;;;;;;14.09;38.66;101943.88;4414209;32;20013;-72
2022/03/07 07:07:00;;;;;;;;;;;;;;;14.11;39.26;101953.97;4416865;32;20013;-72
2022/03/07 07:09:26;;;;;;;;;;;;;;;14.28;38.96;101956.50;4414362;32;20918;-72
2022/03/07 07:11:51;;;;;;;;;;;;;;;14.36;38.58;101946.59;4416153;32;19993;-72
2022/03/07 07:14:17;;;;;;;;;;;;;;;14.39;38.55;101939.28;4413563;32;20315;-72
2022/03/07 07:16:43;;;;;;;;;;;;;;;14.38;38.90;101949.00;4415628;32;20003;-72
2022/03/07 07:19:08;;;;;;;;;;;;;;;14.43;38.38;101948.50;4414893;32;20102;-72
2022/03/07 07:21:33;;;;;;;;;;;;;;;14.48;38.22;101951.59;4416542;32;19958;-72
2022/03/07 07:23:59;;;;;;;;;;;;;;;14.53;38.73;101942.63;4414685;32;20005;-72
2022/03/07 07:26:24;;;;;;;;;;;;;;;14.68;38.41;101952.41;4416172;32;19992;-72
2022/03/07 07:28:50;;;;;;;;;;;;;;;14.77;38.03;101938.44;4414616;32;19967;-72
2022/03/07 07:31:16;;;;;;;;;;;;;;;14.84;37.89;101943.94;4416496;32;19999;-72
2022/03/07 07:33:41;;;;;;;;;;;;;;;14.90;38.11;101942.19;4418819;32;19973;-72
2022/03/07 07:36:07;;;;;;;;;;;;;;;15.00;38.05;101943.19;4416604;32;20005;-72
2022/03/07 07:38:32;;;;;;;;;;;;;;;15.03;37.70;101943.09;4401820;32;19976;-72
2022/03/07 07:40:58;;;;;;;;;;;;;;;15.05;37.72;101939.81;4415943;32;19961;-72
2022/03/07 07:43:23;;;;;;;;;;;;;;;15.14;37.80;101935.16;4406428;32;20045;-71
2022/03/07 07:45:49;;;;;;;;;;;;;;;15.22;37.08;101944.28;4417993;32;20385;-71
2022/03/07 07:48:14;;;;;;;;;;;;;;;15.18;37.59;101935.06;4397570;32;20006;-71
2022/03/07 07:50:39;;;;;;;;;;;;;;;15.22;37.48;101939.41;4414521;32;20000;-72
2022/03/07 07:53:06;;;;;;;;;;;;;;;15.17;37.29;101933.47;4418196;32;20399;-72
2022/03/07 07:55:32;;;;;;;;;;;;;;;15.30;37.44;101937.19;4415570;32;19961;-73
2022/03/07 07:57:57;;;;;;;;;;;;;;;15.09;37.23;101930.00;4409853;32;20051;-73
2022/03/07 08:00:23;;;;;;;;;;;;;;;15.12;37.37;101931.94;4411396;32;19990;-73
2022/03/07 08:02:50;;;;;;;;;;;;;;;15.38;37.32;101924.47;4410525;32;20388;-73
2022/03/07 08:05:16;;;;;;;;;;;;;;;15.40;37.39;101922.00;4408129;32;19984;-73
2022/03/07 08:07:42;;;;;;;;;;;;;;;15.50;37.15;101938.72;4409250;32;20035;-73
2022/03/07 08:10:09;;;;;;;;;;;;;;;15.33;37.01;101937.12;4410293;32;19965;-73
2022/03/07 08:12:35;;;;;;;;;;;;;;;15.25;37.60;101938.53;4410195;32;20434;-73
2022/03/07 08:15:00;;;;;;;;;;;;;;;15.18;37.02;101929.38;4409912;32;19962;-73
2022/03/07 08:17:26;;;;;;;;;;;;;;;15.19;37.78;101928.94;4410154;32;20027;-73
2022/03/07 08:19:51;;;;;;;;;;;;;;;15.62;36.83;101932.34;4405718;32;20008;-73
2022/03/07 08:22:17;;;;;;;;;;;;;;;15.94;36.68;101925.81;4407249;32;20007;-74
2022/03/07 08:24:43;;;;;;;;;;;;;;;15.99;36.42;101922.47;4408624;32;19997;-73
2022/03/07 08:27:08;;;;;;;;;;;;;;;15.98;36.59;101920.06;4409657;32;20027;-73
2022/03/07 08:29:34;;;;;;;;;;;;;;;16.21;35.90;101917.78;4407176;32;20583;-73
2022/03/07 08:32:00;;;;;;;;;;;;;;;15.78;36.51;101925.88;4409681;32;20452;-73
2022/03/07 08:34:25;;;;;;;;;;;;;;;16.20;35.93;101919.00;4408545;32;20034;-73
2022/03/07 08:36:51;;;;;;;;;;;;;;;16.22;35.60;101915.72;4410247;32;19984;-73
2022/03/07 08:39:17;;;;;;;;;;;;;;;16.05;35.82;101917.81;4409420;32;20001;-73
2022/03/07 08:41:42;;;;;;;;;;;;;;;16.35;35.75;101917.34;4393979;32;20009;-73
2022/03/07 08:44:08;;;;;;;;;;;;;;;16.26;35.33;101917.19;4411452;32;19953;-73
2022/03/07 08:46:33;;;;;;;;;;;;;;;16.11;35.91;101907.50;4411937;32;20814;-73
2022/03/07 08:48:59;;;;;;;;;;;;;;;16.16;35.64;101917.50;4409762;32;20545;-73
2022/03/07 08:51:24;;;;;;;;;;;;;;;16.21;35.85;101914.13;4403032;32;19957;-73
2022/03/07 08:53:50;;;;;;;;;;;;;;;16.41;35.41;101909.84;4410146;32;20409;-71
2022/03/07 08:56:15;;;;;;;;;;;;;;;16.18;35.19;101910.16;4392726;32;20303;-72
2022/03/07 08:58:41;;;;;;;;;;;;;;;16.01;36.28;101911.44;4409053;32;20311;-72
2022/03/07 09:01:07;;;;;;;;;;;;;;;15.82;35.46;101912.38;4411297;32;20196;-72
2022/03/07 09:03:34;;;;;;;;;;;;;;;15.99;35.98;101900.50;4410433;32;20543;-71
2022/03/07 09:06:00;;;;;;;;;;;;;;;15.98;35.64;101903.81;4408181;32;20380;-71
2022/03/07 09:08:26;;;;;;;;;;;;;;;16.25;35.65;101909.13;4409751;32;19971;-73
2022/03/07 09:10:51;;;;;;;;;;;;;;;16.29;35.67;101910.63;4410756;32;20353;-71
2022/03/07 09:13:17;;;;;;;;;;;;;;;16.60;35.40;101896.75;4410075;32;19989;-72
2022/03/07 09:15:45;;;;;;;;;;;;;;;16.71;35.02;101903.72;4409964;32;20364;-72
2022/03/07 09:18:12;;;;;;;;;;;;;;;16.68;34.81;101900.97;4411328;32;20017;-72
2022/03/07 09:20:39;;;;;;;;;;;;;;;16.85;34.52;101896.78;4407703;32;20332;-73
2022/03/07 09:23:05;;;;;;;;;;;;;;;16.87;34.39;101902.78;4410357;32;20036;-72
2022/03/07 09:25:31;;;;;;;;;;;;;;;16.98;34.36;101906.91;4409952;32;19997;-72
2022/03/07 09:27:58;;;;;;;;;;;;;;;16.99;34.39;101899.97;4409596;32;20016;-72
2022/03/07 09:30:24;;;;;;;;;;;;;;;17.30;33.71;101900.16;4412932;32;19980;-72
2022/03/07 09:32:50;;;;;;;;;;;;;;;17.50;33.77;101903.59;4390684;32;20001;-72
2022/03/07 09:35:16;;;;;;;;;;;;;;;17.55;33.21;101900.19;4400431;32;19966;-73
2022/03/07 09:37:41;;;;;;;;;;;;;;;17.55;33.34;101894.50;4393417;32;20367;-73
2022/03/07 09:40:07;;;;;;;;;;;;;;;17.51;33.05;101900.28;4410609;32;20008;-71
2022/03/07 09:42:33;;;;;;;;;;;;;;;17.44;33.48;101899.72;4395799;32;20378;-71
2022/03/07 09:45:01;;;;;;;;;;;;;;;17.57;33.85;101904.16;4408478;32;19985;-72
2022/03/07 09:47:29;;;;;;;;;;;;;;;17.99;33.27;101892.50;4411463;32;20106;-72
2022/03/07 09:49:54;;;;;;;;;;;;;;;17.85;32.87;101888.13;4407118;32;19993;-72
2022/03/07 09:52:20;;;;;;;;;;;;;;;17.75;32.96;101884.41;4405653;32;21581;-73
2022/03/07 09:54:45;;;;;;;;;;;;;;;18.08;32.73;101886.88;4407187;32;20934;-73
2022/03/07 09:57:12;;;;;;;;;;;;;;;17.88;33.06;101887.19;4395740;32;19989;-72
2022/03/07 09:59:37;;;;;;;;;;;;;;;17.78;32.98;101892.03;4409467;32;20456;-73
2022/03/07 10:02:04;;;;;;;;;;;;;;;18.52;31.92;101897.03;4406887;32;20001;-72
2022/03/07 10:04:30;;;;;;;;;;;;;;;18.66;31.74;101888.75;4408300;32;19964;-73
2022/03/07 10:06:56;;;;;;;;;;;;;;;18.55;32.09;101884.69;4408843;32;20038;-72
2022/03/07 10:09:23;;;;;;;;;;;;;;;18.63;31.54;101886.03;4406345;32;20320;-72
2022/03/07 10:11:50;;;;;;;;;;;;;;;18.92;31.50;101887.28;4407469;32;19976;-72
2022/03/07 10:14:16;;;;;;;;;;;;;;;18.99;31.29;101881.28;4411756;32;21027;-73
2022/03/07 10:16:43;;;;;;;;;;;;;;;19.17;31.01;101884.22;4408836;32;20331;-73
2022/03/07 10:19:11;;;;;;;;;;;;;;;19.13;30.81;101882.75;4393787;32;19953;-73
2022/03/07 10:21:44;;;;;;;;;;;;;;;19.01;31.20;101875.91;4410226;32;20005;-73
2022/03/07 10:24:10;;;;;;;;;;;;;;;19.23;31.49;101875.81;4410089;32;19969;-74
2022/03/07 10:26:36;;;;;;;;;;;;;;;19.47;31.31;101876.88;4410192;32;19958;-71
2022/03/07 10:29:04;;;;;;;;;;;;;;;19.70;30.49;101864.84;4411004;32;20351;-73
2022/03/07 10:31:29;;;;;;;;;;;;;;;19.80;30.97;101866.44;4408067;32;20514;-74
2022/03/07 10:34:03;;;;;;;;;;;;;;;20.23;29.95;101860.41;4409057;32;19976;-74
2022/03/07 10:36:31;;;;;;;;;;;;;;;20.45;29.43;101858.16;4411669;32;21688;-74
2022/03/07 10:38:58;;;;;;;;;;;;;;;21.04;28.64;101860.19;4407723;32;19980;-74
2022/03/07 10:41:40;;;;;;;;;;;;;;;20.65;28.89;101857.63;4411102;32;20250;-73
2022/03/07 10:44:06;;;;;;;;;;;;;;;20.61;29.08;101859.84;4412162;32;20001;-74
2022/03/07 10:46:33;;;;;;;;;;;;;;;19.98;30.59;101846.44;4412510;32;20467;-72
2022/03/07 10:48:59;;;;;;;;;;;;;;;19.77;31.25;101853.09;4415105;32;19964;-72
2022/03/07 10:51:25;;;;;;;;;;;;;;;20.00;31.97;101840.25;4414713;32;19965;-73
2022/03/07 10:53:51;;;;;;;;;;;;;;;20.23;31.93;101837.56;4412675;32;20051;-73
2022/03/07 10:56:18;;;;;;;;;;;;;;;20.59;30.54;101834.56;4410362;32;20592;-73
2022/03/07 10:58:45;;;;;;;;;;;;;;;20.82;29.92;101824.47;4401073;32;20380;-73
2022/03/07 11:01:11;;;;;;;;;;;;;;;20.77;29.08;101823.06;4400267;32;20491;-73
2022/03/07 11:03:37;;;;;;;;;;;;;;;21.08;28.62;101823.59;4412039;32;19996;-73
2022/03/07 11:06:03;;;;;;;;;;;;;;;21.30;28.22;101815.50;4413157;32;19997;-73
2022/03/07 11:08:29;;;;;;;;;;;;;;;20.90;27.94;101805.69;4410129;32;20399;-73
2022/03/07 11:10:55;;;;;;;;;;;;;;;21.01;28.38;101798.19;4394494;32;20012;-73
2022/03/07 11:13:26;;;;;;;;;;;;;;;21.32;28.09;101795.75;4413450;32;19991;-73
2022/03/07 11:15:55;;;;;;;;;;;;;;;21.57;27.57;101792.38;4412729;32;20001;-73
2022/03/07 11:18:22;;;;;;;;;;;;;;;21.59;27.40;101795.56;4412287;32;20336;-73
2022/03/07 11:20:48;;;;;;;;;;;;;;;21.34;27.70;101796.06;4410491;32;20004;-73
2022/03/07 11:23:21;;;;;;;;;;;;;;;21.11;27.51;101793.22;4410671;32;20012;-73
2022/03/07 11:25:49;;;;;;;;;;;;;;;21.06;28.01;101785.28;4413180;32;20094;-73
2022/03/07 11:28:15;;;;;;;;;;;;;;;21.36;27.96;101778.41;4413091;32;20008;-73
2022/03/07 11:30:42;;;;;;;;;;;;;;;21.60;27.78;101779.94;4399680;32;20018;-73
2022/03/07 11:33:12;;;;;;;;;;;;;;;22.15;26.95;101771.63;4413705;32;20039;-73
2022/03/07 11:35:41;;;;;;;;;;;;;;;22.01;27.17;101768.78;4411117;32;19953;-73
2022/03/07 11:38:09;;;;;;;;;;;;;;;21.99;26.99;101771.38;4410980;32;19989;-74
2022/03/07 11:40:37;;;;;;;;;;;;;;;21.67;27.47;101759.50;4413847;32;20009;-73
2022/03/07 11:43:06;;;;;;;;;;;;;;;21.38;27.78;101753.72;4410884;32;20292;-73
2022/03/07 11:45:37;;;;;;;;;;;;;;;20.84;28.16;101748.34;4415718;32;20038;-73
2022/03/07 11:48:11;;;;;;;;;;;;;;;20.68;28.35;101740.16;4410233;32;20000;-73
2022/03/07 11:50:37;;;;;;;;;;;;;;;19.64;29.68;101733.28;4410883;32;20022;-73
2022/03/07 11:53:03;;;;;;;;;;;;;;;19.53;30.07;101738.72;4402518;32;19985;-73
2022/03/07 11:55:31;;;;;;;;;;;;;;;19.46;30.18;101738.25;4414370;32;19996;-73
2022/03/07 11:58:01;;;;;;;;;;;;;;;18.98;30.92;101727.69;4413709;32;20411;-73
2022/03/07 12:00:32;;;;;;;;;;;;;;;19.09;30.98;101720.25;4411690;32;20304;-73
2022/03/07 12:02:59;;;;;;;;;;;;;;;18.72;31.51;101732.09;4413281;32;19945;-73
2022/03/07 12:05:26;;;;;;;;;;;;;;;19.22;30.80;101725.81;4411779;32;19981;-73
2022/03/07 12:07:52;;;;;;;;;;;;;;;19.14;30.87;101716.78;4410049;32;19997;-73
2022/03/07 12:10:18;;;;;;;;;;;;;;;19.17;30.57;101707.28;4412603;32;20331;-74
2022/03/07 12:12:44;;;;;;;;;;;;;;;19.75;29.74;101709.97;4412870;32;19976;-74
2022/03/07 12:15:11;;;;;;;;;;;;;;;20.64;28.46;101708.06;4412963;32;20203;-74
2022/03/07 12:17:37;;;;;;;;;;;;;;;22.36;26.07;101706.56;4414877;32;20634;-74
2022/03/07 12:20:03;;;;;;;;;;;;;;;22.30;25.78;101702.81;4410180;32;19996;-74
2022/03/07 12:22:30;;;;;;;;;;;;;;;22.76;24.42;101696.00;4410013;32;20461;-74
2022/03/07 12:24:57;;;;;;;;;;;;;;;22.63;24.73;101689.00;4410147;32;19996;-74
2022/03/07 12:27:23;;;;;;;;;;;;;;;21.89;25.73;101681.81;4412846;32;19993;-73
2022/03/07 12:29:51;;;;;;;;;;;;;;;21.35;26.47;101679.44;4411873;32;20019;-73